WMKAWIMM [RAB119]

Details From WMKA - Alor Setar Sultan Abdul Halim
To WIMM - Medan/Polonia
Flight Number RAB119
Tags generated
Created
Modified
Stats Distance 196 nm / 363 km
Max Altitude 20,300 ft / 6,187 m
Waypoints 4
Social Downloads 1
Likes 0
Share VATSIM

Download

Looking for another format? Having issues loading an existing format? Contact us
Advertisement - Login to hide

Notes

Basic altitude profile: - Ascent Rate: 2000ft/min - Ascent Speed: 250kts - Cruise Altitude: 35000ft - Cruise Speed: 450kts - Descent Rate: 2000ft/min - Descent Speed: 250kts

Route

WMKA VPG G468 GUNIP WIMM

ID Type Via Altitude Latitude Longitude Leg Dist Tot Dist Heading (true) Name
O WMKA APT - 0 ft / 0 m 6.18967˚ 100.39818˚ - 0 nm - Alor Setar Sultan Abdul Halim
VPG VOR - 14,700 ft / 4,481 m 5.27964˚ 100.26039˚ 55 nm 55 nm 189° / 189° PENANG VOR-DME
GUNIP FIX G468 (AWY-HI) 20,300 ft / 6,187 m 4.49806˚ 99.53056˚ 64 nm 119 nm 223° / 223° -
O WIMM APT - 0 ft / 0 m 3.55806˚ 98.67172˚ 76 nm 195 nm 222° / 222° Medan/Polonia

Altitude Profile

Advertisement - Login to hide

Weather


0- 5 10 15 20 25 30 35+ Temperature / ° C

Clouds and Precipitation
Forecast for 2017-12-18 18:00 UTC. Updated 2 hours ago

Ground ~20,000 ft ~40,000 ft Winds

WMKA

Details ICAO WMKA (AOR)
Name Alor Setar Sultan Abdul Halim
Region Malaysia (Peninsular Malaysia)
Timezone Asia/Kuala_Lumpur (UTC+8.0)
Stats Elevation 15 ft / 5 m (AMSL)
Location 6.189666° 100.398184°
Runways 1
Magnetic Variation 0.229° W

METAR

WMKA 181800Z VRB04KT 9999 FEW030 SCT140 BKN280 26/21 Q1013

Decode

TAF

Not found

Departure Runways

ID Width Length Bearing (true) Bearing (mag) Surface Threshold Offset Overrun Length
04 151 ft / 46 m 9,029 ft / 2,752 m 42.31° 42.54° Asphalt 0 ft / 0 m 60 ft / 18 m
22 151 ft / 46 m 9,029 ft / 2,752 m 222.32° 222.55° Asphalt 0 ft / 0 m 0 ft / 0 m

WIMM

Details ICAO WIMM (MES)
Name Medan/Polonia
Region Indonesia
Timezone Asia/Jakarta (UTC+7.0)
Stats Elevation 90 ft / 27 m (AMSL)
Location 3.558057° 98.671716°
Runways 1
Magnetic Variation 0.321° W

METAR

WIMM 181830Z VRB03KT 3500 -TSRA FEW015CB BKN016 26/24 Q1012

Decode

TAF

TAF WIMM 181700Z 1818/1918 21004KT 4000 HZ FEW016CB SCT017 TEMPO 1818/1820 TS BECMG 1902/1904 35010KT 9999 SCT018 BECMG 1912/1914 23004KT 4000 HZ

Decode

Destination Runways

ID Width Length Bearing (true) Bearing (mag) Surface Threshold Offset Overrun Length
05 148 ft / 45 m 9,531 ft / 2,905 m 46.55° 46.87° Asphalt 910 ft / 277 m 197 ft / 60 m
23 148 ft / 45 m 9,531 ft / 2,905 m 226.55° 226.87° Asphalt 0 ft / 0 m 325 ft / 99 m

Approach Navaids

Runway Type Ident Frequency Range Bearing (true) Bearing (mag) Slope Elevation
05 Localiser IMDN 110.10 MHz 18 nm / 33 km 47.68° 48.00° - 90 ft / 27 m (AMSL)
05 Glidescope IMDN 110.10 MHz 10 nm / 19 km 46.55° 46.87° 3.00° 90 ft / 27 m (AMSL)

Popular Alternatives